Time;durP1;ratioP1;P1;durP2;ratioP2;P2;SDS_P1;SDS_P2;PMS_P1;PMS_P2;Temp;Humidity;BMP_temperature;BMP_pressure;BME280_temperature;BME280_humidity;BME280_pressure;Samples;Min_cycle;Max_cycle;Signal;HPM_P1;HPM_P2
2022/10/24 00:00:43;;;;;;;12.52;3.30;;;;;;;14.23;100.00;100102.66;5011070;28;20022;-41
2022/10/24 00:03:09;;;;;;;16.27;3.45;;;;;;;14.27;100.00;100098.47;5010256;28;20034;-42
2022/10/24 00:05:34;;;;;;;14.48;3.33;;;;;;;14.31;100.00;100108.84;5010728;28;20044;-41
2022/10/24 00:08:00;;;;;;;10.40;2.90;;;;;;;14.30;100.00;100102.59;5010153;28;20033;-40
2022/10/24 00:10:25;;;;;;;18.70;4.18;;;;;;;14.30;100.00;100102.59;5010509;28;20045;-40
2022/10/24 00:12:52;;;;;;;28.20;4.35;;;;;;;14.41;100.00;100107.25;5011600;28;20034;-40
2022/10/24 00:15:18;;;;;;;20.73;3.87;;;;;;;14.48;100.00;100107.16;5011508;28;20084;-39
2022/10/24 00:17:43;;;;;;;20.98;3.80;;;;;;;14.55;100.00;100105.25;5010326;28;20661;-40
2022/10/24 00:20:09;;;;;;;24.20;4.05;;;;;;;14.69;100.00;100090.50;5010622;28;20037;-41
2022/10/24 00:22:34;;;;;;;16.90;3.55;;;;;;;14.77;100.00;100085.81;5010852;28;20076;-41
2022/10/24 00:25:00;;;;;;;14.48;4.25;;;;;;;14.84;100.00;100081.97;5010793;28;20053;-41
2022/10/24 00:27:25;;;;;;;13.60;3.83;;;;;;;14.87;100.00;100088.81;5010169;28;20030;-41
2022/10/24 00:29:50;;;;;;;14.95;3.88;;;;;;;14.90;100.00;100086.50;5009744;28;20022;-40
2022/10/24 00:32:16;;;;;;;18.23;3.83;;;;;;;14.96;100.00;100084.75;5010184;28;20470;-42
2022/10/24 00:34:41;;;;;;;24.15;3.70;;;;;;;14.96;100.00;100081.22;5009005;28;20479;-41
2022/10/24 00:37:07;;;;;;;23.27;4.60;;;;;;;15.00;100.00;100075.09;5010456;28;20743;-40
2022/10/24 00:39:32;;;;;;;14.40;4.13;;;;;;;15.02;100.00;100081.13;5009008;28;20450;-40
2022/10/24 00:42:00;;;;;;;12.95;3.20;;;;;;;15.12;100.00;100080.56;5010300;28;20030;-41
2022/10/24 00:44:30;;;;;;;21.33;4.07;;;;;;;15.14;100.00;100068.44;5010267;28;20030;-40
2022/10/24 00:46:56;;;;;;;12.77;3.55;;;;;;;15.22;100.00;100071.84;5009930;28;20101;-40
2022/10/24 00:49:28;;;;;;;13.52;3.00;;;;;;;15.24;100.00;100065.16;5008732;28;20096;-41
2022/10/24 00:51:57;;;;;;;10.20;3.28;;;;;;;15.27;100.00;100063.84;5008989;28;20088;-41
2022/10/24 00:54:23;;;;;;;12.80;3.30;;;;;;;15.29;100.00;100056.31;5008792;28;20029;-41
2022/10/24 00:57:12;;;;;;;14.07;3.22;;;;;;;15.34;100.00;100059.16;5009457;28;20021;-41
2022/10/24 00:59:40;;;;;;;13.38;3.47;;;;;;;15.34;100.00;100053.75;5009813;28;20512;-41
2022/10/24 01:02:06;;;;;;;14.48;2.85;;;;;;;15.36;100.00;100055.16;5008630;28;20030;-42
2022/10/24 01:04:31;;;;;;;11.88;2.53;;;;;;;15.43;100.00;100059.66;5009621;28;20018;-41
2022/10/24 01:07:09;;;;;;;10.27;2.70;;;;;;;15.49;100.00;100046.00;5010110;28;20086;-42
2022/10/24 01:09:55;;;;;;;16.13;3.55;;;;;;;15.49;100.00;100046.00;5009877;28;20691;-41
2022/10/24 01:12:35;;;;;;;12.27;2.63;;;;;;;15.51;100.00;100046.59;4971198;28;20043;-41
2022/10/24 01:15:20;;;;;;;16.23;2.05;;;;;;;15.49;100.00;100037.88;4970743;28;20753;-42
2022/10/24 01:17:58;;;;;;;12.90;2.50;;;;;;;15.50;100.00;100036.78;4977161;28;20058;-41
2022/10/24 01:20:33;;;;;;;13.90;2.55;;;;;;;15.49;100.00;100035.16;4970952;28;20042;-41
2022/10/24 01:23:33;;;;;;;18.73;2.50;;;;;;;15.54;100.00;100032.56;4969463;28;20089;-41
2022/10/24 01:26:21;;;;;;;15.90;2.28;;;;;;;15.62;98.93;100027.88;4960719;28;20214;-40
2022/10/24 01:28:56;;;;;;;6.65;2.05;;;;;;;15.67;98.18;100025.28;4966476;28;20031;-40
2022/10/24 01:31:29;;;;;;;11.95;1.92;;;;;;;15.67;97.72;100028.81;4950715;28;20039;-41
2022/10/24 01:34:03;;;;;;;10.63;1.73;;;;;;;15.67;97.31;100014.41;4952662;28;20114;-41
2022/10/24 01:36:50;;;;;;;9.73;2.40;;;;;;;15.68;96.83;100022.31;4969339;28;20062;-41
2022/10/24 01:39:18;;;;;;;14.20;2.17;;;;;;;15.77;95.56;100003.81;4968922;28;20101;-41
2022/10/24 01:41:45;;;;;;;10.40;2.05;;;;;;;15.76;94.75;100013.03;4970062;28;20423;-40
2022/10/24 01:44:19;;;;;;;12.55;1.90;;;;;;;15.72;94.90;100006.44;4973513;28;20050;-42
2022/10/24 01:46:58;;;;;;;18.38;1.95;;;;;;;15.63;95.54;100015.94;4973280;28;20053;-41
2022/10/24 01:49:27;;;;;;;16.88;2.20;;;;;;;15.58;95.44;100009.31;4986529;28;20043;-40
2022/10/24 01:51:55;;;;;;;18.73;3.08;;;;;;;15.62;94.68;100000.75;4974804;28;20062;-40
2022/10/24 01:54:21;;;;;;;11.88;1.83;;;;;;;15.62;94.07;100004.28;4972792;28;20118;-40
2022/10/24 01:56:46;;;;;;;13.43;2.25;;;;;;;15.58;94.29;100022.88;4974446;28;20057;-41
2022/10/24 01:59:29;;;;;;;8.55;1.90;;;;;;;15.61;93.49;100009.91;4972735;28;20031;-40
2022/10/24 02:02:02;;;;;;;5.40;1.60;;;;;;;15.62;92.77;99995.31;4974527;28;20030;-41
2022/10/24 02:04:29;;;;;;;6.72;1.90;;;;;;;15.61;92.64;99997.19;4973159;28;20070;-40
2022/10/24 02:06:55;;;;;;;13.23;1.87;;;;;;;15.65;92.17;99995.66;4974624;28;20339;-41
2022/10/24 02:09:23;;;;;;;11.98;2.00;;;;;;;15.70;91.66;100000.41;4975217;28;20034;-41
2022/10/24 02:11:51;;;;;;;9.70;1.80;;;;;;;15.76;90.73;99999.47;5009079;28;20054;-40
2022/10/24 02:14:25;;;;;;;8.43;2.08;;;;;;;15.74;90.49;99990.72;5002263;28;20126;-39
2022/10/24 02:16:50;;;;;;;17.27;2.30;;;;;;;15.72;90.63;100001.81;5012933;28;20038;-43
2022/10/24 02:19:16;;;;;;;9.32;2.05;;;;;;;15.68;90.41;99994.34;5012769;28;20076;-41
2022/10/24 02:21:48;;;;;;;9.43;1.90;;;;;;;15.66;90.05;100004.63;5013142;28;20033;-41
2022/10/24 02:24:19;;;;;;;8.07;1.90;;;;;;;15.72;89.14;100007.25;5012529;28;20065;-41
2022/10/24 02:26:47;;;;;;;11.93;1.67;;;;;;;15.67;89.64;100006.28;5012429;28;20033;-41
2022/10/24 02:29:21;;;;;;;8.35;1.60;;;;;;;15.68;88.93;99989.75;5014320;28;20092;-42
2022/10/24 02:31:52;;;;;;;16.73;2.20;;;;;;;15.71;88.73;100004.75;4992965;28;20053;-41
2022/10/24 02:34:18;;;;;;;18.42;2.10;;;;;;;15.74;88.05;99994.25;4999340;28;20026;-40
2022/10/24 02:36:45;;;;;;;10.75;2.08;;;;;;;15.82;87.23;100000.41;5012688;28;20069;-43
2022/10/24 02:39:11;;;;;;;8.38;1.88;;;;;;;15.82;87.33;99998.50;5012684;28;20037;-41
2022/10/24 02:41:40;;;;;;;12.98;1.70;;;;;;;15.81;87.46;99999.56;5012715;28;20465;-40
2022/10/24 02:44:06;;;;;;;14.20;2.30;;;;;;;15.78;87.58;100005.47;5013902;28;20026;-41
2022/10/24 02:46:33;;;;;;;14.85;1.95;;;;;;;15.72;87.83;99990.97;5012479;28;20077;-41
2022/10/24 02:49:00;;;;;;;12.40;2.15;;;;;;;15.73;87.93;100000.75;5013628;28;20400;-41
2022/10/24 02:51:30;;;;;;;5.00;1.67;;;;;;;15.71;88.20;100000.16;5013386;28;20033;-41
2022/10/24 02:53:57;;;;;;;14.32;1.95;;;;;;;15.76;87.25;99999.47;5011229;28;20038;-40
2022/10/24 02:56:22;;;;;;;11.20;1.90;;;;;;;15.72;87.83;99990.16;5013062;28;20041;-41
2022/10/24 02:58:47;;;;;;;8.05;1.65;;;;;;;15.68;88.33;99983.50;5011908;28;20029;-41
2022/10/24 03:01:13;;;;;;;5.95;1.85;;;;;;;15.70;87.75;99976.00;5013355;28;20527;-41
2022/10/24 03:03:38;;;;;;;14.48;2.10;;;;;;;15.69;87.60;99986.03;5013604;28;20048;-41
2022/10/24 03:06:04;;;;;;;8.30;1.80;;;;;;;15.63;87.97;99994.25;5012785;28;20485;-43
2022/10/24 03:08:29;;;;;;;12.88;1.67;;;;;;;15.59;88.07;99981.16;5011142;28;20034;-41
2022/10/24 03:10:54;;;;;;;9.35;1.83;;;;;;;15.63;87.30;99991.53;5011415;28;20137;-41
2022/10/24 03:13:20;;;;;;;16.75;2.00;;;;;;;15.59;87.01;99970.31;5011248;28;20049;-41
2022/10/24 03:15:45;;;;;;;13.82;2.03;;;;;;;15.54;86.71;99978.31;5012942;28;20056;-40
2022/10/24 03:18:11;;;;;;;7.05;1.50;;;;;;;15.53;86.82;99975.84;5012847;28;20022;-40
2022/10/24 03:20:36;;;;;;;12.85;1.58;;;;;;;15.51;86.47;99967.94;5012852;28;20087;-42
2022/10/24 03:23:02;;;;;;;13.55;2.05;;;;;;;15.46;86.80;99975.16;5013275;28;20164;-43
2022/10/24 03:25:27;;;;;;;9.75;1.50;;;;;;;15.35;86.85;99969.47;5011306;28;20038;-43
2022/10/24 03:27:52;;;;;;;6.18;1.20;;;;;;;15.32;87.24;99979.94;5008178;28;20107;-42
2022/10/24 03:30:18;;;;;;;13.13;1.42;;;;;;;15.25;86.07;99979.25;5012803;28;20109;-41
2022/10/24 03:32:43;;;;;;;9.10;1.45;;;;;;;15.22;85.84;99977.00;5011606;28;20034;-40
2022/10/24 03:35:09;;;;;;;10.73;1.58;;;;;;;15.26;84.88;99976.28;5011130;28;20038;-41
2022/10/24 03:37:34;;;;;;;10.77;1.83;;;;;;;15.24;84.84;99993.84;5021621;28;20037;-41
2022/10/24 03:39:59;;;;;;;13.95;1.63;;;;;;;15.24;84.73;99983.00;5014097;28;20030;-42
2022/10/24 03:42:25;;;;;;;19.08;1.92;;;;;;;15.27;83.69;99977.97;5007957;28;20109;-41
2022/10/24 03:44:50;;;;;;;13.15;1.67;;;;;;;15.30;83.25;99980.19;5017371;28;20527;-42
2022/10/24 03:47:15;;;;;;;17.17;1.65;;;;;;;15.31;83.06;99981.84;5019834;28;20488;-42
2022/10/24 03:49:41;;;;;;;11.95;2.05;;;;;;;15.36;82.49;99995.53;5012246;28;20034;-42
2022/10/24 03:52:06;;;;;;;12.07;1.45;;;;;;;15.36;82.64;99973.84;5011808;28;20056;-43
2022/10/24 03:54:32;;;;;;;25.80;1.50;;;;;;;15.38;82.22;99968.19;5011631;28;20033;-43
2022/10/24 03:56:57;;;;;;;19.55;1.92;;;;;;;15.41;82.09;99972.31;5012175;28;20036;-42
2022/10/24 03:59:22;;;;;;;20.17;2.00;;;;;;;15.46;81.83;99973.25;5012000;28;20038;-43
2022/10/24 04:01:48;;;;;;;12.82;1.75;;;;;;;15.48;81.86;99973.00;5010102;28;20025;-42
2022/10/24 04:04:13;;;;;;;23.52;1.98;;;;;;;15.45;82.46;99963.44;5012509;28;20125;-42
2022/10/24 04:06:39;;;;;;;9.07;1.50;;;;;;;15.46;82.49;99969.72;5015455;28;20129;-41
2022/10/24 04:09:04;;;;;;;11.10;1.70;;;;;;;15.47;82.26;99966.75;5014190;28;20113;-43
2022/10/24 04:11:30;;;;;;;15.68;1.92;;;;;;;15.47;82.48;99972.19;5010302;28;20060;-43
2022/10/24 04:13:55;;;;;;;15.70;1.83;;;;;;;15.47;82.59;99966.75;4998531;28;20045;-41
2022/10/24 04:16:22;;;;;;;14.18;1.58;;;;;;;15.51;82.22;99964.41;5010479;28;20041;-42
2022/10/24 04:18:48;;;;;;;19.45;1.67;;;;;;;15.53;82.54;99981.25;4998466;28;20030;-43
2022/10/24 04:21:14;;;;;;;12.65;1.40;;;;;;;15.52;82.75;99980.44;5008983;28;20018;-42
2022/10/24 04:23:41;;;;;;;13.80;2.65;;;;;;;15.50;83.17;99965.47;5010995;28;20360;-42
2022/10/24 04:26:07;;;;;;;13.40;1.67;;;;;;;15.50;83.12;99982.56;5009392;28;20048;-43
2022/10/24 04:28:33;;;;;;;8.70;1.45;;;;;;;15.50;83.34;99965.47;5012424;28;20431;-42
2022/10/24 04:30:58;;;;;;;13.35;1.98;;;;;;;15.46;84.11;99965.13;5011201;28;20034;-42
2022/10/24 04:33:24;;;;;;;11.52;1.50;;;;;;;15.51;83.31;99962.53;5009279;28;20485;-42
2022/10/24 04:35:50;;;;;;;16.17;2.00;;;;;;;15.55;83.45;99954.75;5011557;28;20115;-42
2022/10/24 04:38:16;;;;;;;7.18;1.48;;;;;;;15.53;83.83;99949.56;5011349;28;20030;-41
2022/10/24 04:40:49;;;;;;;13.38;1.60;;;;;;;15.50;84.14;99952.72;5010534;28;20539;-41
2022/10/24 04:43:14;;;;;;;17.17;2.05;;;;;;;15.48;84.46;99941.31;5011147;28;20037;-41
2022/10/24 04:45:40;;;;;;;10.80;1.60;;;;;;;15.52;84.22;99942.47;5009741;28;20026;-41
2022/10/24 04:48:05;;;;;;;10.40;1.65;;;;;;;15.56;83.66;99942.81;5008196;28;20026;-43
2022/10/24 04:50:30;;;;;;;17.10;1.85;;;;;;;15.54;83.57;99953.91;5009440;28;20048;-42
2022/10/24 04:52:56;;;;;;;8.93;1.33;;;;;;;15.56;83.31;99949.09;5009473;28;20044;-43
2022/10/24 04:55:21;;;;;;;11.05;1.70;;;;;;;15.61;83.19;99933.97;5008799;28;20084;-41
2022/10/24 04:57:46;;;;;;;8.10;1.67;;;;;;;15.61;83.29;99942.09;5010229;28;20117;-41
2022/10/24 05:00:12;;;;;;;8.90;1.52;;;;;;;15.62;83.23;99963.59;5010465;28;20133;-41
2022/10/24 05:02:37;;;;;;;19.75;2.15;;;;;;;15.62;83.08;99925.63;5009834;28;20458;-41
2022/10/24 05:05:04;;;;;;;15.73;1.30;;;;;;;15.66;82.97;99939.50;5012241;28;20123;-42
2022/10/24 05:07:29;;;;;;;14.95;1.73;;;;;;;15.64;82.97;99947.06;5010595;28;20385;-42
2022/10/24 05:09:55;;;;;;;16.85;1.58;;;;;;;15.62;83.33;99963.59;5009606;28;20025;-42
2022/10/24 05:12:20;;;;;;;14.27;1.50;;;;;;;15.63;82.82;99958.97;5010286;28;20529;-42
2022/10/24 05:14:46;;;;;;;12.68;1.83;;;;;;;15.61;82.84;99961.09;5010499;28;20025;-42
2022/10/24 05:17:13;;;;;;;16.55;1.73;;;;;;;15.55;83.01;99952.84;5009150;28;20024;-40
2022/10/24 05:19:38;;;;;;;11.33;1.90;;;;;;;15.54;83.08;99951.22;5009078;28;20080;-42
2022/10/24 05:22:03;;;;;;;9.85;1.42;;;;;;;15.46;83.66;99954.28;5010666;28;20073;-42
2022/10/24 05:24:29;;;;;;;8.77;1.38;;;;;;;15.42;84.02;99969.34;5020123;28;20018;-41
2022/10/24 05:26:54;;;;;;;12.85;1.52;;;;;;;15.40;84.22;99955.19;5009588;28;20378;-43
2022/10/24 05:29:20;;;;;;;12.23;1.27;;;;;;;15.35;84.54;99964.06;5020832;28;20026;-42
2022/10/24 05:31:45;;;;;;;8.98;1.50;;;;;;;15.33;84.60;99965.34;5009156;28;20485;-42
2022/10/24 05:34:10;;;;;;;14.13;1.60;;;;;;;15.34;84.61;99975.94;5008545;28;20179;-42
2022/10/24 05:36:36;;;;;;;7.80;2.05;;;;;;;15.29;85.25;99969.56;5009307;28;20485;-42
2022/10/24 05:39:01;;;;;;;15.27;1.73;;;;;;;15.27;85.35;99952.72;5008512;28;20032;-42
2022/10/24 05:41:27;;;;;;;14.15;1.38;;;;;;;15.31;85.35;99960.16;5009695;28;20033;-42
2022/10/24 05:43:52;;;;;;;22.17;2.15;;;;;;;15.35;85.23;99957.81;5009939;28;20026;-41
2022/10/24 05:46:17;;;;;;;11.90;1.60;;;;;;;15.40;85.21;99955.19;5010448;28;20022;-41
2022/10/24 05:48:43;;;;;;;12.90;2.38;;;;;;;15.38;85.56;99965.47;5009068;28;20485;-40
2022/10/24 05:51:08;;;;;;;14.20;1.55;;;;;;;15.39;85.51;99958.97;4995462;28;20398;-42
2022/10/24 05:53:33;;;;;;;12.35;2.05;;;;;;;15.40;85.57;99963.31;5007809;28;20053;-41
2022/10/24 05:55:59;;;;;;;21.88;1.45;;;;;;;15.40;85.79;99944.34;5009969;28;20029;-42
2022/10/24 05:58:26;;;;;;;13.75;1.83;;;;;;;15.40;85.58;99965.22;5009917;28;20437;-41
2022/10/24 06:00:52;;;;;;;9.40;1.52;;;;;;;15.40;86.07;99948.94;5010033;28;20030;-44
2022/10/24 06:03:17;;;;;;;9.13;1.20;;;;;;;15.37;86.10;99964.63;5007493;28;20034;-42
2022/10/24 06:05:42;;;;;;;13.93;1.83;;;;;;;15.35;86.29;99968.66;5009019;28;20030;-41
2022/10/24 06:08:08;;;;;;;14.43;1.75;;;;;;;15.36;86.04;99979.25;5009989;28;20464;-42
2022/10/24 06:10:34;;;;;;;12.88;1.65;;;;;;;15.34;86.25;99970.53;5000734;28;20366;-43
2022/10/24 06:12:59;;;;;;;13.65;1.50;;;;;;;15.32;86.43;99980.81;4998915;28;20066;-41
2022/10/24 06:15:25;;;;;;;13.50;1.65;;;;;;;15.34;86.33;99994.91;5012156;28;20042;-42
2022/10/24 06:17:50;;;;;;;16.08;1.90;;;;;;;15.35;86.37;99993.88;4993578;28;20022;-41
2022/10/24 06:20:15;;;;;;;16.45;1.85;;;;;;;15.32;89.04;100001.63;4988522;28;20474;-42
2022/10/24 06:22:44;;;;;;;9.65;1.35;;;;;;;15.10;92.74;100013.03;5005748;28;20111;-41
2022/10/24 06:25:09;;;;;;;16.83;1.92;;;;;;;14.88;95.62;100022.75;5008545;28;20129;-41
2022/10/24 06:27:34;;;;;;;19.85;2.25;;;;;;;14.68;97.32;100034.69;5014480;28;20084;-41
2022/10/24 06:30:00;;;;;;;15.77;2.03;;;;;;;14.51;100.00;100049.88;5014796;28;20465;-42
2022/10/24 06:32:25;;;;;;;14.73;1.48;;;;;;;14.24;100.00;100057.47;5013298;28;20026;-43
2022/10/24 06:34:51;;;;;;;19.42;2.70;;;;;;;14.07;100.00;100053.72;5012895;28;20030;-43
2022/10/24 06:37:16;;;;;;;27.67;2.08;;;;;;;13.94;100.00;100057.38;5012810;28;20079;-40
2022/10/24 06:39:41;;;;;;;16.70;1.80;;;;;;;13.89;100.00;100049.09;5009658;28;20022;-42
2022/10/24 06:42:07;;;;;;;20.80;1.90;;;;;;;13.87;100.00;100059.31;4999478;28;20037;-41
2022/10/24 06:44:32;;;;;;;11.55;1.40;;;;;;;13.93;100.00;100058.41;5012647;28;20033;-40
2022/10/24 06:46:57;;;;;;;14.85;2.25;;;;;;;13.96;100.00;100047.16;5010604;28;20057;-40
2022/10/24 06:49:23;;;;;;;13.93;1.42;;;;;;;14.05;100.00;100065.56;5012897;28;20488;-40
2022/10/24 06:51:48;;;;;;;11.57;1.77;;;;;;;14.15;100.00;100073.19;5002394;28;20030;-42
2022/10/24 06:54:14;;;;;;;13.15;1.65;;;;;;;14.06;100.00;100090.78;5013224;28;20111;-40
2022/10/24 06:56:39;;;;;;;15.18;1.90;;;;;;;13.95;100.00;100086.91;5013790;28;20037;-42
2022/10/24 06:59:13;;;;;;;12.55;2.08;;;;;;;13.79;100.00;100117.22;5014752;28;20136;-46
2022/10/24 07:01:39;;;;;;;18.08;1.77;;;;;;;13.71;100.00;100107.50;5019303;28;20072;-43
2022/10/24 07:04:04;;;;;;;11.65;1.65;;;;;;;13.70;100.00;100103.16;5012175;28;20030;-42
2022/10/24 07:06:30;;;;;;;13.55;1.98;;;;;;;13.76;100.00;100104.97;5010941;28;20026;-42
2022/10/24 07:08:57;;;;;;;20.98;2.50;;;;;;;13.98;100.00;100093.75;5013465;28;20557;-43
2022/10/24 07:11:23;;;;;;;11.00;1.70;;;;;;;14.20;100.00;100111.22;5019458;28;20053;-41
2022/10/24 07:13:49;;;;;;;22.20;1.70;;;;;;;14.27;100.00;100114.69;5012783;28;20036;-41
2022/10/24 07:16:15;;;;;;;17.60;1.85;;;;;;;14.33;100.00;100122.97;5011404;28;20026;-42
2022/10/24 07:18:41;;;;;;;12.45;1.88;;;;;;;14.26;100.00;100134.69;5012109;28;20041;-41
2022/10/24 07:21:10;;;;;;;15.25;1.50;;;;;;;14.25;100.00;100127.63;5009063;28;20386;-41
2022/10/24 07:23:35;;;;;;;14.52;1.92;;;;;;;14.23;100.00;100135.13;5005446;28;20049;-41
2022/10/24 07:26:06;;;;;;;11.50;1.48;;;;;;;14.24;100.00;100142.22;5011351;28;20030;-41
2022/10/24 07:28:32;;;;;;;10.15;1.35;;;;;;;14.35;100.00;100131.69;5012678;28;20393;-39
2022/10/24 07:30:57;;;;;;;12.25;1.45;;;;;;;14.40;100.00;100137.25;5011668;28;20503;-40
2022/10/24 07:33:23;;;;;;;15.98;1.58;;;;;;;14.49;99.14;100141.34;5010863;28;20141;-41
2022/10/24 07:35:49;;;;;;;12.82;1.98;;;;;;;14.54;99.06;100155.06;5012014;28;20424;-39
2022/10/24 07:38:14;;;;;;;10.38;1.50;;;;;;;14.63;97.62;100144.75;5007780;28;20128;-39
2022/10/24 07:40:39;;;;;;;10.65;1.45;;;;;;;14.69;97.45;100147.41;5008807;28;20510;-42
2022/10/24 07:43:04;;;;;;;13.43;1.90;;;;;;;14.76;96.64;100144.59;5011243;28;20095;-40
2022/10/24 07:45:31;;;;;;;11.50;1.45;;;;;;;14.74;96.15;100157.53;5011100;28;20402;-40
2022/10/24 07:47:58;;;;;;;13.95;1.73;;;;;;;14.70;96.97;100162.56;5011092;28;20025;-41
2022/10/24 07:50:23;;;;;;;13.07;1.83;;;;;;;14.80;96.06;100169.38;5011904;28;20033;-41
2022/10/24 07:52:49;;;;;;;6.13;1.40;;;;;;;15.01;96.31;100168.91;5011157;28;20037;-41
2022/10/24 07:55:14;;;;;;;11.98;1.65;;;;;;;15.05;94.81;100180.91;5007401;28;20034;-42
2022/10/24 07:57:39;;;;;;;13.77;2.47;;;;;;;14.90;95.28;100184.03;5005193;28;20033;-41
2022/10/24 08:00:05;;;;;;;16.25;1.75;;;;;;;14.91;95.75;100190.28;5001833;28;20401;-42
2022/10/24 08:02:31;;;;;;;12.02;1.63;;;;;;;14.77;96.21;100188.75;5009260;28;20041;-42
2022/10/24 08:04:57;;;;;;;13.25;1.88;;;;;;;14.68;96.96;100202.59;5008423;28;20044;-41
2022/10/24 08:07:22;;;;;;;12.38;2.17;;;;;;;14.65;97.35;100205.75;5009825;28;20554;-41
2022/10/24 08:09:50;;;;;;;12.73;1.30;;;;;;;14.71;97.63;100206.75;5009760;28;20066;-40
2022/10/24 08:12:16;;;;;;;9.73;1.35;;;;;;;14.60;97.98;100210.19;5009749;28;20049;-41
2022/10/24 08:14:42;;;;;;;15.05;2.03;;;;;;;14.52;98.52;100224.81;5008894;28;20032;-41
2022/10/24 08:17:08;;;;;;;12.75;1.50;;;;;;;14.48;99.00;100229.00;5011858;28;20030;-42
2022/10/24 08:19:33;;;;;;;16.25;2.17;;;;;;;14.45;99.59;100210.50;5010469;28;20448;-42
2022/10/24 08:21:59;;;;;;;18.40;2.30;;;;;;;14.42;99.98;100230.72;5010910;28;20038;-42
2022/10/24 08:24:25;;;;;;;16.30;2.45;;;;;;;14.38;100.00;100217.88;5008709;28;20315;-41
2022/10/24 08:26:50;;;;;;;10.98;1.30;;;;;;;14.36;100.00;100231.63;5009848;28;20025;-42
2022/10/24 08:29:21;;;;;;;12.73;1.42;;;;;;;14.37;100.00;100227.03;5009096;28;20044;-41
2022/10/24 08:31:50;;;;;;;8.02;1.13;;;;;;;14.30;100.00;100228.97;5011493;28;20056;-41
2022/10/24 08:34:16;;;;;;;11.90;1.58;;;;;;;14.21;100.00;100233.84;5010627;28;20396;-42
2022/10/24 08:36:42;;;;;;;19.15;2.45;;;;;;;14.14;100.00;100230.34;5013127;28;20041;-42
2022/10/24 08:39:07;;;;;;;15.65;2.13;;;;;;;14.10;100.00;100242.69;5009305;28;20398;-42
2022/10/24 08:41:39;;;;;;;21.27;2.05;;;;;;;14.06;100.00;100280.19;5010010;28;20026;-42
2022/10/24 08:44:17;;;;;;;13.45;1.67;;;;;;;14.18;100.00;100258.63;5009510;28;20026;-42
2022/10/24 08:46:52;;;;;;;19.15;2.05;;;;;;;14.59;100.00;100247.28;5008477;28;20100;-41
2022/10/24 08:49:42;;;;;;;12.93;2.75;;;;;;;14.83;98.85;100248.28;5011813;28;20037;-41
2022/10/24 08:52:23;;;;;;;16.20;1.70;;;;;;;14.77;98.78;100256.47;5018573;28;20045;-41
2022/10/24 08:54:49;;;;;;;18.48;2.40;;;;;;;14.69;99.15;100285.53;5009729;28;20026;-42
2022/10/24 08:57:27;;;;;;;14.40;1.70;;;;;;;14.52;100.00;100284.38;5009879;28;20048;-42
2022/10/24 08:59:57;;;;;;;17.65;2.47;;;;;;;14.42;100.00;100270.53;5018874;28;20412;-41
2022/10/24 09:02:25;;;;;;;18.25;2.35;;;;;;;14.39;100.00;100298.88;4992433;28;20026;-41
2022/10/24 09:04:55;;;;;;;16.13;1.90;;;;;;;14.37;100.00;100286.59;4994015;28;20031;-42
2022/10/24 09:07:22;;;;;;;17.90;1.85;;;;;;;14.29;100.00;100274.16;5008208;28;20037;-43
2022/10/24 09:09:50;;;;;;;17.95;1.80;;;;;;;14.29;100.00;100290.41;5006986;28;20421;-41
2022/10/24 09:12:19;;;;;;;14.23;2.25;;;;;;;14.36;100.00;100296.59;5012128;28;20069;-40
2022/10/24 09:14:48;;;;;;;10.20;1.73;;;;;;;14.29;100.00;100301.22;5014439;28;20040;-44
2022/10/24 09:17:21;;;;;;;16.10;3.25;;;;;;;14.43;100.00;100307.41;5017530;28;20124;-42
2022/10/24 09:19:55;;;;;;;13.00;1.98;;;;;;;14.49;100.00;100309.22;5009926;28;20037;-42
2022/10/24 09:22:22;;;;;;;10.98;1.52;;;;;;;14.53;100.00;100302.31;5007923;28;20025;-42
2022/10/24 09:25:12;;;;;;;22.17;2.22;;;;;;;14.65;100.00;100305.97;5006412;28;20034;-42
2022/10/24 09:27:39;;;;;;;11.00;1.65;;;;;;;14.92;100.00;100306.53;4978617;28;20045;-42
2022/10/24 09:30:10;;;;;;;17.08;2.33;;;;;;;15.25;98.86;100307.28;5006507;28;20018;-41
2022/10/24 09:32:36;;;;;;;13.65;2.22;;;;;;;15.39;97.71;100322.31;5008441;28;20497;-42
2022/10/24 09:35:10;;;;;;;11.65;1.63;;;;;;;15.04;98.57;100317.50;5016273;28;20160;-41
2022/10/24 09:37:39;;;;;;;25.35;2.63;;;;;;;14.93;100.00;100307.41;4996487;28;20493;-42
2022/10/24 09:40:11;;;;;;;15.00;1.77;;;;;;;15.20;98.70;100328.81;5008653;28;20034;-41
2022/10/24 09:42:37;;;;;;;28.10;2.70;;;;;;;15.08;98.81;100328.69;4991081;28;20459;-41
2022/10/24 09:45:26;;;;;;;19.75;3.05;;;;;;;15.23;98.77;100342.72;5008336;28;20052;-42
2022/10/24 09:48:01;;;;;;;17.90;2.25;;;;;;;15.36;98.41;100339.03;4998937;28;20543;-41
2022/10/24 09:50:26;;;;;;;16.88;2.25;;;;;;;15.17;98.16;100351.75;5009420;28;20029;-41
2022/10/24 09:52:55;;;;;;;14.85;2.17;;;;;;;15.31;99.26;100355.16;5010373;28;20361;-43
2022/10/24 09:55:23;;;;;;;25.40;2.80;;;;;;;15.43;98.89;100366.06;5008868;28;20029;-42
2022/10/24 09:57:58;;;;;;;13.50;2.08;;;;;;;15.26;98.39;100360.41;5010136;28;20481;-42
2022/10/24 10:00:27;;;;;;;16.92;2.97;;;;;;;15.49;98.55;100366.00;5009469;28;20038;-42
2022/10/24 10:02:57;;;;;;;21.40;3.05;;;;;;;15.47;97.21;100362.69;5017669;28;20061;-42
2022/10/24 10:05:23;;;;;;;27.10;2.88;;;;;;;15.49;97.33;100359.75;5033959;28;20036;-42
2022/10/24 10:07:49;;;;;;;21.08;2.35;;;;;;;15.46;96.94;100382.72;5017340;28;20037;-43
2022/10/24 10:10:17;;;;;;;11.80;2.38;;;;;;;15.37;97.02;100374.03;5011562;28;20517;-43
2022/10/24 10:12:45;;;;;;;16.73;2.47;;;;;;;15.31;97.82;100371.41;5013351;28;20034;-41
2022/10/24 10:15:17;;;;;;;10.55;1.98;;;;;;;15.29;97.11;100373.53;4996869;28;20049;-41
2022/10/24 10:17:51;;;;;;;17.58;1.90;;;;;;;15.47;97.62;100381.66;5011508;28;20030;-42
2022/10/24 10:20:31;;;;;;;13.90;2.22;;;;;;;15.29;96.95;100382.47;5012353;28;20087;-42
2022/10/24 10:23:15;;;;;;;16.25;2.03;;;;;;;15.05;96.87;100402.31;4992926;28;20030;-42
2022/10/24 10:25:41;;;;;;;12.13;2.13;;;;;;;15.01;98.11;100396.53;5010976;28;20405;-43
2022/10/24 10:28:18;;;;;;;15.95;1.98;;;;;;;14.93;98.61;100413.06;5013503;28;20026;-42
2022/10/24 10:30:51;;;;;;;;;;;;;;;14.91;99.49;100407.84;5032802;28;20160;-43
2022/10/24 10:33:32;;;;;;;10.45;1.95;;;;;;;14.96;99.92;100407.19;5013220;28;19914;-43
2022/10/24 10:36:21;;;;;;;15.60;2.55;;;;;;;15.08;100.00;100424.38;5013517;28;20172;-42
2022/10/24 10:39:17;;;;;;;18.25;2.28;;;;;;;15.27;100.00;100422.56;5010913;28;20065;-42
2022/10/24 10:42:11;;;;;;;17.67;1.95;;;;;;;15.43;98.90;100432.00;5012013;28;20128;-42
2022/10/24 10:44:47;;;;;;;12.93;2.13;;;;;;;15.35;98.74;100435.81;5011818;28;20026;-43
2022/10/24 10:47:34;;;;;;;14.18;2.00;;;;;;;15.27;98.09;100437.97;5011621;28;20088;-42
2022/10/24 10:50:00;;;;;;;15.10;1.85;;;;;;;15.57;98.48;100440.81;5011564;28;20516;-42
2022/10/24 10:52:49;;;;;;;8.95;1.38;;;;;;;15.68;97.04;100447.38;5011390;28;20037;-43
2022/10/24 10:55:23;;;;;;;15.07;1.67;;;;;;;15.59;96.02;100449.56;5012391;28;20026;-42
2022/10/24 10:57:51;;;;;;;9.98;1.70;;;;;;;15.50;97.14;100443.59;5012501;28;20029;-43
2022/10/24 11:00:55;;;;;;;17.13;1.92;;;;;;;15.39;98.38;100447.06;5012049;28;20097;-42
2022/10/24 11:03:31;;;;;;;7.93;1.50;;;;;;;15.17;99.24;100451.22;4952036;28;20410;-42
2022/10/24 11:06:22;;;;;;;10.23;1.50;;;;;;;15.06;99.52;100452.75;5000414;28;20033;-42
2022/10/24 11:09:12;;;;;;;8.13;1.85;;;;;;;14.97;100.00;100471.19;5012816;28;20092;-43
2022/10/24 11:11:46;;;;;;;6.45;1.38;;;;;;;14.97;100.00;100456.81;5011683;28;20448;-42
2022/10/24 11:14:42;;;;;;;8.00;1.83;;;;;;;15.08;100.00;100456.91;5019247;28;20371;-42
2022/10/24 11:17:21;;;;;;;6.32;1.52;;;;;;;15.09;100.00;100455.88;4995975;28;20500;-42
2022/10/24 11:20:02;;;;;;;12.52;1.73;;;;;;;15.01;100.00;100452.59;5012791;28;20412;-42
2022/10/24 11:22:32;;;;;;;11.10;1.60;;;;;;;14.95;100.00;100467.03;5012474;28;20041;-41
2022/10/24 11:25:07;;;;;;;10.52;1.75;;;;;;;14.73;100.00;100469.28;5015574;28;20030;-42
2022/10/24 11:27:41;;;;;;;13.38;2.25;;;;;;;14.66;100.00;100474.72;5009225;28;20032;-42